Time;durP1;ratioP1;P1;durP2;ratioP2;P2;SDS_P1;SDS_P2;PMS_P1;PMS_P2;Temp;Humidity;BMP_temperature;BMP_pressure;BME280_temperature;BME280_humidity;BME280_pressure;Samples;Min_cycle;Max_cycle;Signal;HPM_P1;HPM_P2
2023/03/18 00:00:08;;;;;;;;;;;;;;;;;;4921505;29;19922;-89
2023/03/18 00:02:34;;;;;;;;;;;;;;;;;;4914233;29;19923;-89
2023/03/18 00:05:00;;;;;;;;;;;;;;;;;;4937336;29;19927;-89
2023/03/18 00:07:26;;;;;;;;;;;;;;;;;;4907291;29;20385;-89
2023/03/18 00:09:52;;;;;;;;;;;;;;;;;;4931876;29;19930;-89
2023/03/18 00:12:18;;;;;;;;;;;;;;;;;;4921378;29;19923;-89
2023/03/18 00:14:45;;;;;;;;;;;;;;;;;;4934780;29;19923;-89
2023/03/18 00:17:11;;;;;;;;;;;;;;;;;;4937170;29;19951;-90
2023/03/18 00:19:37;;;;;;;;;;;;;;;;;;4912630;29;19927;-90
2023/03/18 00:22:02;;;;;;;;;;;;;;;;;;4908887;29;19923;-90
2023/03/18 00:27:00;;;;;;;;;;;;;;;;;;4927734;29;19927;-90
2023/03/18 00:29:25;;;;;;;;;;;;;;;;;;4918683;29;19930;-89
2023/03/18 00:32:00;;;;;;;;;;;;;;;;;;4932692;29;19923;-89
2023/03/18 00:34:26;;;;;;;;;;;;;;;;;;4952168;29;19922;-88
2023/03/18 00:36:55;;;;;;;;;;;;;;;;;;4928919;29;20021;-89
2023/03/18 00:39:25;;;;;;;;;;;;;;;;;;4931464;29;19933;-89
2023/03/18 00:41:51;;;;;;;;;;;;;;;;;;4920703;29;19929;-89
2023/03/18 00:44:18;;;;;;;;;;;;;;;;;;4934443;29;19938;-89
2023/03/18 00:46:44;;;;;;;;;;;;;;;;;;4937300;29;20386;-89
2023/03/18 00:49:10;;;;;;;;;;;;;;;;;;4922930;29;20380;-90
2023/03/18 00:51:36;;;;;;;;;;;;;;;;;;4939679;29;20062;-89
2023/03/18 00:54:03;;;;;;;;;;;;;;;;;;4921395;29;20262;-89
2023/03/18 00:56:29;;;;;;;;;;;;;;;;;;4911723;29;19930;-88
2023/03/18 00:58:56;;;;;;;;;;;;;;;;;;4935144;29;20516;-90
2023/03/18 01:01:27;;;;;;;;;;;;;;;;;;4936097;29;19929;-89
2023/03/18 01:03:54;;;;;;;;;;;;;;;;;;4927202;29;19923;-88
2023/03/18 01:06:27;;;;;;;;;;;;;;;;;;4912423;29;19975;-89
2023/03/18 01:08:53;;;;;;;;;;;;;;;;;;4913673;29;19974;-89
2023/03/18 01:11:19;;;;;;;;;;;;;;;;;;4919783;29;19922;-89
2023/03/18 01:13:45;;;;;;;;;;;;;;;;;;4917366;29;19923;-89
2023/03/18 01:16:10;;;;;;;;;;;;;;;;;;4920145;29;19923;-89
2023/03/18 01:18:36;;;;;;;;;;;;;;;;;;4919963;29;19923;-89
2023/03/18 01:23:59;;;;;;;;;;;;;;;;;;4935887;29;20366;-89
2023/03/18 01:26:25;;;;;;;;;;;;;;;;;;4920035;29;19934;-89
2023/03/18 01:28:51;;;;;;;;;;;;;;;;;;4919925;29;19922;-89
2023/03/18 01:31:17;;;;;;;;;;;;;;;;;;4919962;29;20396;-89
2023/03/18 01:33:43;;;;;;;;;;;;;;;;;;4919562;29;19945;-89
2023/03/18 01:36:10;;;;;;;;;;;;;;;;;;4919925;29;19923;-89
2023/03/18 01:38:36;;;;;;;;;;;;;;;;;;4919776;29;19923;-89
2023/03/18 01:41:02;;;;;;;;;;;;;;;;;;4919390;29;20751;-88
2023/03/18 01:43:29;;;;;;;;;;;;;;;;;;4919933;29;20332;-88
2023/03/18 01:45:55;;;;;;;;;;;;;;;;;;4935521;29;19978;-89
2023/03/18 01:48:22;;;;;;;;;;;;;;;;;;4919805;29;19923;-88
2023/03/18 01:51:07;;;;;;;;;;;;;;;;;;4919637;29;20284;-89
2023/03/18 01:53:34;;;;;;;;;;;;;;;;;;4919560;29;20013;-89
2023/03/18 01:56:00;;;;;;;;;;;;;;;;;;4919150;29;19978;-89
2023/03/18 02:00:59;;;;;;;;;;;;;;;;;;4934541;29;19923;-89
2023/03/18 02:03:26;;;;;;;;;;;;;;;;;;4919696;29;20324;-88
2023/03/18 02:05:52;;;;;;;;;;;;;;;;;;4919423;29;19927;-88
2023/03/18 02:08:18;;;;;;;;;;;;;;;;;;4919102;29;19946;-89
2023/03/18 02:10:44;;;;;;;;;;;;;;;;;;4918437;29;19923;-89
2023/03/18 02:13:11;;;;;;;;;;;;;;;;;;4919066;29;19986;-89
2023/03/18 02:15:37;;;;;;;;;;;;;;;;;;4918726;29;19922;-89
2023/03/18 02:20:45;;;;;;;;;;;;;;;;;;4934866;29;20050;-89
2023/03/18 02:23:12;;;;;;;;;;;;;;;;;;4919044;29;19923;-89
2023/03/18 02:25:47;;;;;;;;;;;;;;;;;;4918742;29;19933;-89
2023/03/18 02:28:13;;;;;;;;;;;;;;;;;;4918894;29;19923;-89
2023/03/18 02:30:39;;;;;;;;;;;;;;;;;;4918482;29;20026;-89
2023/03/18 02:33:05;;;;;;;;;;;;;;;;;;4919067;29;19958;-88
2023/03/18 02:35:31;;;;;;;;;;;;;;;;;;4919051;29;19930;-89
2023/03/18 02:37:57;;;;;;;;;;;;;;;;;;4918804;29;20352;-89
2023/03/18 02:40:26;;;;;;;;;;;;;;;;;;4918374;29;19923;-89
2023/03/18 02:42:54;;;;;;;;;;;;;;;;;;4935934;29;19986;-89
2023/03/18 02:45:20;;;;;;;;;;;;;;;;;;4923144;29;19923;-89
2023/03/18 02:47:46;;;;;;;;;;;;;;;;;;4934458;29;20261;-89
2023/03/18 02:50:12;;;;;;;;;;;;;;;;;;4926665;29;20380;-89
2023/03/18 02:52:37;;;;;;;;;;;;;;;;;;4920579;29;19923;-89
2023/03/18 02:55:03;;;;;;;;;;;;;;;;;;4937856;29;19973;-89
2023/03/18 02:57:48;;;;;;;;;;;;;;;;;;4920697;29;19923;-89
2023/03/18 03:00:15;;;;;;;;;;;;;;;;;;4918888;29;19933;-89
2023/03/18 03:02:41;;;;;;;;;;;;;;;;;;4934724;29;19923;-89
2023/03/18 03:05:08;;;;;;;;;;;;;;;;;;4918871;29;20007;-89
2023/03/18 03:07:33;;;;;;;;;;;;;;;;;;4918728;29;19933;-89
2023/03/18 03:13:03;;;;;;;;;;;;;;;;;;4935909;29;19937;-89
2023/03/18 03:15:29;;;;;;;;;;;;;;;;;;4918817;29;20529;-89
2023/03/18 03:17:55;;;;;;;;;;;;;;;;;;4918753;29;19922;-89
2023/03/18 03:20:21;;;;;;;;;;;;;;;;;;4934140;29;19981;-89
2023/03/18 03:22:47;;;;;;;;;;;;;;;;;;4918725;29;20390;-89
2023/03/18 03:25:13;;;;;;;;;;;;;;;;;;4934298;29;19923;-89
2023/03/18 03:27:40;;;;;;;;;;;;;;;;;;4920500;29;19923;-89
2023/03/18 03:30:05;;;;;;;;;;;;;;;;;;4937839;29;19930;-89
2023/03/18 03:32:31;;;;;;;;;;;;;;;;;;4938151;29;19926;-88
2023/03/18 03:34:57;;;;;;;;;;;;;;;;;;4938035;29;19970;-89
2023/03/18 03:37:23;;;;;;;;;;;;;;;;;;4922161;29;20387;-89
2023/03/18 03:39:50;;;;;;;;;;;;;;;;;;4937356;29;19922;-89
2023/03/18 03:42:16;;;;;;;;;;;;;;;;;;4922030;29;19923;-88
2023/03/18 03:44:51;;;;;;;;;;;;;;;;;;4937991;29;19923;-88
2023/03/18 03:47:17;;;;;;;;;;;;;;;;;;4921831;29;19934;-88
2023/03/18 03:49:43;;;;;;;;;;;;;;;;;;4921517;29;19923;-89
2023/03/18 03:52:09;;;;;;;;;;;;;;;;;;4921763;29;19973;-89
2023/03/18 03:54:35;;;;;;;;;;;;;;;;;;4937051;29;19929;-89
2023/03/18 04:00:06;;;;;;;;;;;;;;;;;;4919476;29;20009;-89
2023/03/18 04:02:32;;;;;;;;;;;;;;;;;;4918812;29;19923;-89
2023/03/18 04:04:57;;;;;;;;;;;;;;;;;;4918447;29;19923;-89
2023/03/18 04:07:23;;;;;;;;;;;;;;;;;;4918357;29;19974;-88
2023/03/18 04:12:53;;;;;;;;;;;;;;;;;;4926032;29;20413;-88
2023/03/18 04:15:20;;;;;;;;;;;;;;;;;;4918275;29;19927;-88
2023/03/18 04:17:46;;;;;;;;;;;;;;;;;;4918259;29;19927;-89
2023/03/18 04:20:11;;;;;;;;;;;;;;;;;;4917875;29;19994;-88
2023/03/18 04:22:37;;;;;;;;;;;;;;;;;;4918304;29;20353;-89
2023/03/18 04:25:03;;;;;;;;;;;;;;;;;;4918093;29;20293;-89
2023/03/18 04:27:29;;;;;;;;;;;;;;;;;;4917992;29;20017;-89
2023/03/18 04:29:55;;;;;;;;;;;;;;;;;;4917611;29;20345;-89
2023/03/18 04:32:21;;;;;;;;;;;;;;;;;;4921066;29;20027;-88
2023/03/18 04:34:47;;;;;;;;;;;;;;;;;;4936959;29;19930;-89
2023/03/18 04:37:27;;;;;;;;;;;;;;;;;;4936970;29;20382;-88
2023/03/18 04:39:53;;;;;;;;;;;;;;;;;;4920190;29;19930;-88
2023/03/18 04:42:19;;;;;;;;;;;;;;;;;;4937140;29;19927;-89
2023/03/18 04:44:45;;;;;;;;;;;;;;;;;;4936727;29;20300;-89
2023/03/18 04:47:12;;;;;;;;;;;;;;;;;;4920938;29;19935;-89
2023/03/18 04:49:38;;;;;;;;;;;;;;;;;;4920284;29;20320;-89
2023/03/18 04:52:04;;;;;;;;;;;;;;;;;;4936662;29;19923;-89
2023/03/18 04:54:30;;;;;;;;;;;;;;;;;;4920763;29;19923;-89
2023/03/18 04:56:56;;;;;;;;;;;;;;;;;;4920860;29;19974;-89
2023/03/18 04:59:22;;;;;;;;;;;;;;;;;;4920300;29;19953;-89
2023/03/18 05:01:48;;;;;;;;;;;;;;;;;;4920574;29;20293;-88
2023/03/18 05:04:14;;;;;;;;;;;;;;;;;;4936365;29;19923;-89
2023/03/18 05:06:40;;;;;;;;;;;;;;;;;;4920389;29;20278;-89
2023/03/18 05:11:59;;;;;;;;;;;;;;;;;;4936208;29;20266;-88
2023/03/18 05:14:27;;;;;;;;;;;;;;;;;;4936512;29;19962;-88
2023/03/18 05:16:53;;;;;;;;;;;;;;;;;;4936080;29;19930;-89
2023/03/18 05:19:19;;;;;;;;;;;;;;;;;;4919773;29;19923;-88
2023/03/18 05:21:45;;;;;;;;;;;;;;;;;;4919939;29;19923;-88
2023/03/18 05:24:11;;;;;;;;;;;;;;;;;;4920529;29;19926;-88
2023/03/18 05:26:37;;;;;;;;;;;;;;;;;;4935826;29;20021;-89
2023/03/18 05:29:03;;;;;;;;;;;;;;;;;;4935430;29;19923;-88
2023/03/18 05:31:29;;;;;;;;;;;;;;;;;;4920168;29;20447;-88
2023/03/18 05:33:55;;;;;;;;;;;;;;;;;;4920005;29;20368;-88
2023/03/18 05:36:22;;;;;;;;;;;;;;;;;;4919926;29;20300;-89
2023/03/18 05:38:48;;;;;;;;;;;;;;;;;;4919954;29;19923;-89
2023/03/18 05:41:14;;;;;;;;;;;;;;;;;;4919259;29;19922;-89
2023/03/18 05:43:39;;;;;;;;;;;;;;;;;;4919670;29;19923;-89
2023/03/18 05:46:05;;;;;;;;;;;;;;;;;;4920064;29;20296;-89
2023/03/18 05:48:32;;;;;;;;;;;;;;;;;;4919761;29;19974;-87
2023/03/18 05:50:58;;;;;;;;;;;;;;;;;;4918794;29;20340;-88
2023/03/18 05:53:24;;;;;;;;;;;;;;;;;;4935872;29;19923;-87
2023/03/18 05:55:50;;;;;;;;;;;;;;;;;;4919751;29;19930;-88
2023/03/18 05:58:16;;;;;;;;;;;;;;;;;;4919945;29;20017;-88
2023/03/18 06:00:42;;;;;;;;;;;;;;;;;;4934991;29;20296;-89
2023/03/18 06:03:09;;;;;;;;;;;;;;;;;;4919489;29;19922;-87
2023/03/18 06:05:34;;;;;;;;;;;;;;;;;;4919455;29;19929;-87
2023/03/18 06:08:00;;;;;;;;;;;;;;;;;;4919429;29;19927;-88
2023/03/18 06:10:26;;;;;;;;;;;;;;;;;;4918974;29;19923;-87
2023/03/18 06:12:54;;;;;;;;;;;;;;;;;;4919630;29;20277;-88
2023/03/18 06:15:20;;;;;;;;;;;;;;;;;;4919250;29;19951;-88
2023/03/18 06:17:46;;;;;;;;;;;;;;;;;;4935011;29;19922;-88
2023/03/18 06:20:12;;;;;;;;;;;;;;;;;;4934723;29;19930;-88
2023/03/18 06:22:38;;;;;;;;;;;;;;;;;;4935016;29;19970;-88
2023/03/18 06:25:06;;;;;;;;;;;;;;;;;;4934990;29;19923;-88
2023/03/18 06:27:32;;;;;;;;;;;;;;;;;;4929641;29;20412;-88
2023/03/18 06:30:01;;;;;;;;;;;;;;;;;;4900068;29;19923;-88
2023/03/18 06:32:28;;;;;;;;;;;;;;;;;;4918365;29;19930;-89
2023/03/18 06:34:54;;;;;;;;;;;;;;;;;;4935123;29;19926;-89
2023/03/18 06:37:21;;;;;;;;;;;;;;;;;;4934841;29;19933;-88
2023/03/18 06:39:48;;;;;;;;;;;;;;;;;;4934690;29;20399;-87
2023/03/18 06:42:28;;;;;;;;;;;;;;;;;;4919050;29;19923;-88
2023/03/18 06:44:54;;;;;;;;;;;;;;;;;;4919024;29;19923;-88
2023/03/18 06:47:21;;;;;;;;;;;;;;;;;;4918969;29;19927;-88
2023/03/18 06:49:47;;;;;;;;;;;;;;;;;;4918687;29;19922;-88
2023/03/18 06:52:13;;;;;;;;;;;;;;;;;;4919274;29;19923;-88
2023/03/18 06:54:39;;;;;;;;;;;;;;;;;;4934732;29;19923;-88
2023/03/18 06:57:05;;;;;;;;;;;;;;;;;;4918856;29;19922;-88
2023/03/18 06:59:31;;;;;;;;;;;;;;;;;;4918518;29;20300;-88
2023/03/18 07:01:57;;;;;;;;;;;;;;;;;;4920228;29;19923;-88
2023/03/18 07:04:23;;;;;;;;;;;;;;;;;;4921067;29;19965;-88
2023/03/18 07:06:49;;;;;;;;;;;;;;;;;;4921839;29;19927;-87
2023/03/18 07:09:15;;;;;;;;;;;;;;;;;;4937484;29;19934;-87
2023/03/18 07:11:41;;;;;;;;;;;;;;;;;;4918777;29;19923;-87
2023/03/18 07:14:07;;;;;;;;;;;;;;;;;;4918910;29;20035;-88
2023/03/18 07:16:33;;;;;;;;;;;;;;;;;;4918997;29;20031;-88
2023/03/18 07:18:59;;;;;;;;;;;;;;;;;;4921732;29;19923;-88
2023/03/18 07:21:25;;;;;;;;;;;;;;;;;;4924115;29;19923;-96
2023/03/18 07:23:53;;;;;;;;;;;;;;;;;;4918165;29;20352;-96
2023/03/18 07:26:19;;;;;;;;;;;;;;;;;;4924351;29;19981;-95
2023/03/18 07:28:47;;;;;;;;;;;;;;;;;;4923785;29;20316;-96
2023/03/18 07:31:13;;;;;;;;;;;;;;;;;;4923435;29;19926;-96
2023/03/18 07:33:39;;;;;;;;;;;;;;;;;;4922656;29;19973;-96
2023/03/18 07:36:06;;;;;;;;;;;;;;;;;;4923463;29;20391;-96
2023/03/18 07:38:32;;;;;;;;;;;;;;;;;;4923250;29;19923;-96
2023/03/18 07:40:58;;;;;;;;;;;;;;;;;;4923009;29;19923;-94
2023/03/18 07:43:24;;;;;;;;;;;;;;;;;;4922687;29;19929;-96
2023/03/18 07:45:50;;;;;;;;;;;;;;;;;;4917964;29;19938;-96
2023/03/18 07:51:01;;;;;;;;;;;;;;;;;;4918795;29;20371;-96
2023/03/18 07:53:27;;;;;;;;;;;;;;;;;;4903741;29;19923;-96
2023/03/18 07:55:53;;;;;;;;;;;;;;;;;;4921730;29;19922;-96
2023/03/18 07:58:19;;;;;;;;;;;;;;;;;;4920617;29;19929;-96
2023/03/18 08:00:45;;;;;;;;;;;;;;;;;;4904470;29;20417;-96
2023/03/18 08:03:11;;;;;;;;;;;;;;;;;;4922286;29;19926;-95
2023/03/18 08:05:37;;;;;;;;;;;;;;;;;;4922223;29;19942;-96
2023/03/18 08:08:04;;;;;;;;;;;;;;;;;;4922221;29;19930;-96
2023/03/18 08:10:30;;;;;;;;;;;;;;;;;;4918679;29;19923;-96
2023/03/18 08:12:56;;;;;;;;;;;;;;;;;;4921200;29;19950;-96
2023/03/18 08:15:28;;;;;;;;;;;;;;;;;;4908725;29;19962;-95
2023/03/18 08:17:54;;;;;;;;;;;;;;;;;;4917777;29;19973;-96
2023/03/18 08:20:21;;;;;;;;;;;;;;;;;;4907915;29;19974;-93
2023/03/18 08:22:48;;;;;;;;;;;;;;;;;;4914015;29;19922;-96
2023/03/18 08:25:14;;;;;;;;;;;;;;;;;;4922065;29;20352;-96
2023/03/18 08:27:40;;;;;;;;;;;;;;;;;;4922300;29;19989;-95
2023/03/18 08:30:07;;;;;;;;;;;;;;;;;;4921565;29;19922;-96
2023/03/18 08:32:33;;;;;;;;;;;;;;;;;;4921986;29;19974;-96
2023/03/18 08:34:59;;;;;;;;;;;;;;;;;;4918373;29;19930;-96
2023/03/18 08:37:24;;;;;;;;;;;;;;;;;;4911567;29;19922;-96
2023/03/18 08:39:50;;;;;;;;;;;;;;;;;;4921631;29;20353;-96
2023/03/18 08:42:34;;;;;;;;;;;;;;;;;;4921623;29;20005;-96
2023/03/18 08:45:00;;;;;;;;;;;;;;;;;;4921677;29;20009;-96
2023/03/18 08:47:26;;;;;;;;;;;;;;;;;;4921337;29;19962;-96
2023/03/18 08:49:52;;;;;;;;;;;;;;;;;;4936937;29;20005;-96
2023/03/18 08:52:18;;;;;;;;;;;;;;;;;;4921228;29;19989;-96
2023/03/18 08:54:44;;;;;;;;;;;;;;;;;;4904427;29;20399;-96
2023/03/18 08:57:10;;;;;;;;;;;;;;;;;;4915167;29;20029;-96
2023/03/18 08:59:36;;;;;;;;;;;;;;;;;;4920551;29;19973;-96
2023/03/18 09:04:39;;;;;;;;;;;;;;;;;;4939802;29;19978;-94
2023/03/18 09:07:05;;;;;;;;;;;;;;;;;;4933461;29;19926;-96
2023/03/18 09:09:31;;;;;;;;;;;;;;;;;;4939424;29;19933;-95
2023/03/18 09:11:57;;;;;;;;;;;;;;;;;;4921034;29;20392;-96
2023/03/18 09:14:22;;;;;;;;;;;;;;;;;;4920919;29;19930;-96
2023/03/18 09:16:48;;;;;;;;;;;;;;;;;;4920962;29;19923;-96
2023/03/18 09:19:14;;;;;;;;;;;;;;;;;;4920064;29;19926;-96
2023/03/18 09:21:40;;;;;;;;;;;;;;;;;;4919612;29;20179;-96
2023/03/18 09:24:06;;;;;;;;;;;;;;;;;;4918010;29;19970;-96
2023/03/18 09:26:32;;;;;;;;;;;;;;;;;;4936198;29;19966;-96
2023/03/18 09:28:58;;;;;;;;;;;;;;;;;;4920473;29;19930;-96
2023/03/18 09:31:24;;;;;;;;;;;;;;;;;;4920466;29;20405;-96
2023/03/18 09:33:50;;;;;;;;;;;;;;;;;;4920663;29;19922;-95
2023/03/18 09:36:17;;;;;;;;;;;;;;;;;;4920744;29;19927;-94
2023/03/18 09:38:43;;;;;;;;;;;;;;;;;;4920607;29;19970;-96
2023/03/18 09:41:09;;;;;;;;;;;;;;;;;;4919928;29;20340;-96
2023/03/18 09:43:34;;;;;;;;;;;;;;;;;;4918090;29;19973;-96
2023/03/18 09:46:08;;;;;;;;;;;;;;;;;;4919953;29;19931;-96
2023/03/18 09:48:34;;;;;;;;;;;;;;;;;;4905641;29;20002;-96
2023/03/18 09:51:00;;;;;;;;;;;;;;;;;;4919157;29;20388;-95
2023/03/18 09:53:26;;;;;;;;;;;;;;;;;;4919337;29;19929;-96
2023/03/18 09:55:52;;;;;;;;;;;;;;;;;;4920038;29;19946;-96
2023/03/18 09:58:18;;;;;;;;;;;;;;;;;;4909600;29;19923;-96
2023/03/18 10:00:53;;;;;;;;;;;;;;;;;;4921545;29;19930;-96
2023/03/18 10:03:19;;;;;;;;;;;;;;;;;;4920176;29;19927;-96
2023/03/18 10:05:45;;;;;;;;;;;;;;;;;;4919813;29;20025;-96
2023/03/18 10:11:00;;;;;;;;;;;;;;;;;;4928169;29;19927;-96
2023/03/18 10:13:26;;;;;;;;;;;;;;;;;;4929068;29;19938;-96
2023/03/18 10:15:52;;;;;;;;;;;;;;;;;;4930804;29;19933;-96
2023/03/18 10:18:19;;;;;;;;;;;;;;;;;;4916916;29;19931;-96
2023/03/18 10:20:45;;;;;;;;;;;;;;;;;;4930993;29;20350;-96
2023/03/18 10:23:14;;;;;;;;;;;;;;;;;;4911605;29;19962;-96
2023/03/18 10:25:40;;;;;;;;;;;;;;;;;;4912676;29;19924;-96
2023/03/18 10:28:07;;;;;;;;;;;;;;;;;;4908168;29;20316;-96
2023/03/18 10:30:33;;;;;;;;;;;;;;;;;;4917339;29;19942;-90
2023/03/18 10:32:59;;;;;;;;;;;;;;;;;;4915517;29;19946;-94
2023/03/18 10:35:25;;;;;;;;;;;;;;;;;;4914432;29;19977;-96
2023/03/18 10:38:01;;;;;;;;;;;;;;;;;;4913862;29;19933;-96
2023/03/18 10:40:27;;;;;;;;;;;;;;;;;;4918865;29;19923;-94
2023/03/18 10:42:55;;;;;;;;;;;;;;;;;;4910775;29;19923;-95
2023/03/18 10:45:23;;;;;;;;;;;;;;;;;;4917605;29;20010;-95
2023/03/18 10:47:49;;;;;;;;;;;;;;;;;;4916184;29;19966;-95
2023/03/18 10:50:16;;;;;;;;;;;;;;;;;;4918839;29;19922;-94
2023/03/18 10:52:42;;;;;;;;;;;;;;;;;;4934520;29;20380;-94
2023/03/18 10:55:13;;;;;;;;;;;;;;;;;;4917504;29;20372;-95
2023/03/18 10:57:38;;;;;;;;;;;;;;;;;;4906619;29;19931;-92
2023/03/18 11:00:04;;;;;;;;;;;;;;;;;;4918774;29;19923;-95
2023/03/18 11:02:31;;;;;;;;;;;;;;;;;;4919164;29;20403;-94
2023/03/18 11:04:57;;;;;;;;;;;;;;;;;;4934825;29;19930;-95
2023/03/18 11:07:24;;;;;;;;;;;;;;;;;;4918948;29;20321;-95
2023/03/18 11:09:50;;;;;;;;;;;;;;;;;;4918677;29;19933;-93
2023/03/18 11:12:17;;;;;;;;;;;;;;;;;;4918834;29;19970;-95
2023/03/18 11:14:43;;;;;;;;;;;;;;;;;;4934889;29;19923;-95
2023/03/18 11:17:09;;;;;;;;;;;;;;;;;;4905564;29;19923;-94
2023/03/18 11:19:37;;;;;;;;;;;;;;;;;;4904938;29;19930;-94
2023/03/18 11:22:03;;;;;;;;;;;;;;;;;;4915031;29;20297;-93
2023/03/18 11:24:35;;;;;;;;;;;;;;;;;;4918441;29;19923;-95
2023/03/18 11:27:00;;;;;;;;;;;;;;;;;;4918582;29;19934;-93
2023/03/18 11:29:27;;;;;;;;;;;;;;;;;;4918554;29;19930;-94
2023/03/18 11:31:57;;;;;;;;;;;;;;;;;;4918741;29;19922;-96
2023/03/18 11:34:23;;;;;;;;;;;;;;;;;;4918382;29;20525;-95
2023/03/18 11:36:49;;;;;;;;;;;;;;;;;;4930804;29;19924;-94
2023/03/18 11:41:43;;;;;;;;;;;;;;;;;;4921217;29;19923;-95
2023/03/18 11:44:09;;;;;;;;;;;;;;;;;;4918851;29;19933;-93
2023/03/18 11:46:36;;;;;;;;;;;;;;;;;;4910774;29;19927;-94
2023/03/18 11:49:02;;;;;;;;;;;;;;;;;;4916238;29;19927;-95
2023/03/18 11:51:41;;;;;;;;;;;;;;;;;;4921208;29;19927;-94
2023/03/18 11:54:07;;;;;;;;;;;;;;;;;;4908193;29;19930;-96
2023/03/18 11:56:33;;;;;;;;;;;;;;;;;;4921355;29;19923;-95
2023/03/18 11:58:59;;;;;;;;;;;;;;;;;;4921528;29;19929;-95
2023/03/18 12:01:35;;;;;;;;;;;;;;;;;;4921256;29;19922;-96
2023/03/18 12:04:02;;;;;;;;;;;;;;;;;;4934427;29;19934;-96
2023/03/18 12:06:28;;;;;;;;;;;;;;;;;;4909910;29;20006;-95
2023/03/18 12:08:55;;;;;;;;;;;;;;;;;;4917327;29;19982;-92
2023/03/18 12:11:23;;;;;;;;;;;;;;;;;;4937157;29;19927;-94
2023/03/18 12:13:49;;;;;;;;;;;;;;;;;;4912138;29;19923;-95
2023/03/18 12:16:15;;;;;;;;;;;;;;;;;;4934277;29;19929;-95
2023/03/18 12:18:42;;;;;;;;;;;;;;;;;;4921750;29;19934;-93
2023/03/18 12:21:08;;;;;;;;;;;;;;;;;;4923288;29;19923;-93
2023/03/18 12:23:34;;;;;;;;;;;;;;;;;;4929389;29;19974;-96
2023/03/18 12:26:00;;;;;;;;;;;;;;;;;;4921232;29;19960;-96
2023/03/18 12:28:26;;;;;;;;;;;;;;;;;;4928963;29;19934;-93
2023/03/18 12:30:52;;;;;;;;;;;;;;;;;;4926092;29;19923;-94
2023/03/18 12:33:18;;;;;;;;;;;;;;;;;;4923872;29;20389;-96
2023/03/18 12:35:44;;;;;;;;;;;;;;;;;;4921405;29;19923;-95
2023/03/18 12:38:12;;;;;;;;;;;;;;;;;;4913503;29;20014;-94
2023/03/18 12:40:40;;;;;;;;;;;;;;;;;;4918131;29;19970;-95
2023/03/18 12:43:07;;;;;;;;;;;;;;;;;;4926488;29;20618;-94
2023/03/18 12:45:33;;;;;;;;;;;;;;;;;;4918038;29;19923;-94
2023/03/18 12:47:59;;;;;;;;;;;;;;;;;;4933162;29;19934;-94
2023/03/18 12:50:26;;;;;;;;;;;;;;;;;;4922146;29;19933;-93
2023/03/18 12:52:55;;;;;;;;;;;;;;;;;;4910039;29;19974;-95
2023/03/18 12:55:24;;;;;;;;;;;;;;;;;;4914756;29;20392;-94
2023/03/18 12:57:56;;;;;;;;;;;;;;;;;;4923120;29;19973;-93
2023/03/18 13:00:26;;;;;;;;;;;;;;;;;;4916646;29;19926;-91
2023/03/18 13:02:53;;;;;;;;;;;;;;;;;;4923286;29;19929;-92
2023/03/18 13:05:19;;;;;;;;;;;;;;;;;;4924967;29;19974;-94
2023/03/18 13:07:45;;;;;;;;;;;;;;;;;;4940083;29;20408;-94
2023/03/18 13:10:11;;;;;;;;;;;;;;;;;;4920494;29;19927;-95
2023/03/18 13:12:37;;;;;;;;;;;;;;;;;;4914558;29;19923;-95
2023/03/18 13:15:03;;;;;;;;;;;;;;;;;;4924457;29;19933;-94
2023/03/18 13:17:29;;;;;;;;;;;;;;;;;;4925361;29;19931;-96
2023/03/18 13:19:55;;;;;;;;;;;;;;;;;;4917602;29;19922;-96
2023/03/18 13:22:22;;;;;;;;;;;;;;;;;;4906891;29;19927;-96
2023/03/18 13:24:48;;;;;;;;;;;;;;;;;;4916920;29;19929;-95
2023/03/18 13:27:14;;;;;;;;;;;;;;;;;;4920199;29;19926;-96
2023/03/18 13:29:40;;;;;;;;;;;;;;;;;;4919441;29;20503;-95
2023/03/18 13:32:07;;;;;;;;;;;;;;;;;;4922046;29;20487;-96
2023/03/18 13:34:33;;;;;;;;;;;;;;;;;;4921832;29;19930;-95
2023/03/18 13:37:01;;;;;;;;;;;;;;;;;;4914265;29;21349;-95
2023/03/18 13:39:27;;;;;;;;;;;;;;;;;;4916878;29;20010;-96
2023/03/18 13:41:53;;;;;;;;;;;;;;;;;;4920730;29;19945;-95
2023/03/18 13:47:08;;;;;;;;;;;;;;;;;;4932509;29;20328;-96
2023/03/18 13:49:33;;;;;;;;;;;;;;;;;;4904633;29;19923;-96
2023/03/18 13:52:00;;;;;;;;;;;;;;;;;;4931756;29;19926;-96
2023/03/18 13:54:25;;;;;;;;;;;;;;;;;;4917015;29;19923;-96
2023/03/18 13:56:54;;;;;;;;;;;;;;;;;;4915612;29;19931;-96
2023/03/18 13:59:20;;;;;;;;;;;;;;;;;;4919505;29;20296;-96
2023/03/18 14:01:46;;;;;;;;;;;;;;;;;;4918266;29;20336;-96
2023/03/18 14:04:19;;;;;;;;;;;;;;;;;;4924622;29;19922;-96
2023/03/18 14:06:45;;;;;;;;;;;;;;;;;;4919646;29;20395;-95
2023/03/18 14:09:11;;;;;;;;;;;;;;;;;;4918824;29;20392;-96
2023/03/18 14:11:37;;;;;;;;;;;;;;;;;;4915930;29;19930;-95
2023/03/18 14:14:04;;;;;;;;;;;;;;;;;;4912035;29;20385;-96
2023/03/18 14:16:30;;;;;;;;;;;;;;;;;;4927768;29;19961;-96
2023/03/18 14:19:04;;;;;;;;;;;;;;;;;;4918809;29;19927;-95
2023/03/18 14:21:31;;;;;;;;;;;;;;;;;;4908346;29;20014;-96
2023/03/18 14:23:58;;;;;;;;;;;;;;;;;;4928027;29;19930;-95
2023/03/18 14:26:25;;;;;;;;;;;;;;;;;;4922629;29;19990;-96
2023/03/18 14:28:52;;;;;;;;;;;;;;;;;;4928602;29;19951;-96
2023/03/18 14:31:18;;;;;;;;;;;;;;;;;;4918759;29;19991;-96
2023/03/18 14:33:44;;;;;;;;;;;;;;;;;;4925264;29;19922;-95
2023/03/18 14:36:10;;;;;;;;;;;;;;;;;;4916375;29;19929;-96
2023/03/18 14:38:36;;;;;;;;;;;;;;;;;;4918237;29;19934;-95
2023/03/18 14:41:05;;;;;;;;;;;;;;;;;;4923427;29;19931;-96
2023/03/18 14:43:32;;;;;;;;;;;;;;;;;;4918045;29;19933;-93
2023/03/18 14:45:58;;;;;;;;;;;;;;;;;;4926993;29;19978;-96
2023/03/18 14:48:26;;;;;;;;;;;;;;;;;;4918516;29;19923;-96
2023/03/18 14:50:52;;;;;;;;;;;;;;;;;;4914144;29;19927;-96
2023/03/18 14:56:21;;;;;;;;;;;;;;;;;;4929757;29;19925;-96
2023/03/18 14:58:50;;;;;;;;;;;;;;;;;;4904318;29;20464;-96
2023/03/18 15:01:16;;;;;;;;;;;;;;;;;;4925190;29;20005;-96
2023/03/18 15:03:42;;;;;;;;;;;;;;;;;;4931799;29;20564;-96
2023/03/18 15:06:08;;;;;;;;;;;;;;;;;;4914283;29;19927;-96
2023/03/18 15:08:34;;;;;;;;;;;;;;;;;;4923308;29;19970;-96
2023/03/18 15:11:00;;;;;;;;;;;;;;;;;;4905252;29;20408;-96
2023/03/18 15:13:26;;;;;;;;;;;;;;;;;;4928562;29;19946;-96
2023/03/18 15:21:03;;;;;;;;;;;;;;;;;;5159354;23;19925;-95
2023/03/18 15:23:29;;;;;;;;;;;;;;;;;;4980218;28;20382;-96
2023/03/18 15:25:56;;;;;;;;;;;;;;;;;;4993786;28;19929;-96
2023/03/18 15:28:22;;;;;;;;;;;;;;;;;;4963511;28;19922;-96
2023/03/18 15:30:51;;;;;;;;;;;;;;;;;;5008522;28;19933;-95
2023/03/18 15:33:17;;;;;;;;;;;;;;;;;;4966029;28;19923;-96
2023/03/18 15:35:43;;;;;;;;;;;;;;;;;;4978430;28;19929;-96
2023/03/18 15:38:09;;;;;;;;;;;;;;;;;;4966917;28;20434;-95
2023/03/18 15:40:35;;;;;;;;;;;;;;;;;;4976479;28;19922;-94
2023/03/18 15:43:01;;;;;;;;;;;;;;;;;;4987586;28;19926;-94
2023/03/18 15:45:27;;;;;;;;;;;;;;;;;;4972074;28;19922;-95
2023/03/18 15:50:58;;;;;;;;;;;;;;;;;;4995230;28;20508;-94
2023/03/18 15:53:24;;;;;;;;;;;;;;;;;;4975716;28;19965;-94
2023/03/18 15:55:50;;;;;;;;;;;;;;;;;;4976816;28;19969;-93
2023/03/18 15:58:23;;;;;;;;;;;;;;;;;;4969796;28;19922;-94
2023/03/18 16:00:49;;;;;;;;;;;;;;;;;;4975466;28;19937;-92
2023/03/18 16:03:15;;;;;;;;;;;;;;;;;;4973796;28;19922;-94
2023/03/18 16:05:41;;;;;;;;;;;;;;;;;;4974536;28;19945;-94
2023/03/18 16:08:07;;;;;;;;;;;;;;;;;;4974508;28;19933;-95
2023/03/18 16:10:32;;;;;;;;;;;;;;;;;;4965812;28;20023;-95
2023/03/18 16:12:59;;;;;;;;;;;;;;;;;;4979102;28;19929;-94
2023/03/18 16:15:25;;;;;;;;;;;;;;;;;;4995832;28;19961;-95
2023/03/18 16:17:52;;;;;;;;;;;;;;;;;;4979188;28;19976;-94
2023/03/18 16:20:18;;;;;;;;;;;;;;;;;;4971143;28;19922;-95
2023/03/18 16:22:44;;;;;;;;;;;;;;;;;;4979366;28;20298;-95
2023/03/18 16:25:12;;;;;;;;;;;;;;;;;;4995358;28;19992;-96
2023/03/18 16:27:38;;;;;;;;;;;;;;;;;;4972693;28;19933;-95
2023/03/18 16:32:49;;;;;;;;;;;;;;;;;;4995098;28;20434;-95
2023/03/18 16:35:15;;;;;;;;;;;;;;;;;;4975545;28;20005;-92
2023/03/18 16:37:51;;;;;;;;;;;;;;;;;;4994999;28;19969;-94
2023/03/18 16:40:18;;;;;;;;;;;;;;;;;;4978453;28;20037;-94
2023/03/18 16:42:44;;;;;;;;;;;;;;;;;;4969311;28;19925;-94
2023/03/18 16:45:11;;;;;;;;;;;;;;;;;;4965343;28;19929;-94
2023/03/18 16:47:45;;;;;;;;;;;;;;;;;;4976670;28;19926;-96
2023/03/18 16:50:11;;;;;;;;;;;;;;;;;;4970591;28;19926;-92
2023/03/18 16:52:37;;;;;;;;;;;;;;;;;;4970075;28;19976;-95
2023/03/18 16:55:04;;;;;;;;;;;;;;;;;;4972337;28;19921;-95
2023/03/18 16:57:30;;;;;;;;;;;;;;;;;;4964158;28;19994;-94
2023/03/18 17:00:04;;;;;;;;;;;;;;;;;;4969040;28;19921;-94
2023/03/18 17:02:30;;;;;;;;;;;;;;;;;;4967075;28;19921;-94
2023/03/18 17:04:56;;;;;;;;;;;;;;;;;;4970629;28;19929;-93
2023/03/18 17:07:22;;;;;;;;;;;;;;;;;;4978663;28;20338;-94
2023/03/18 17:09:48;;;;;;;;;;;;;;;;;;4976383;28;20287;-95
2023/03/18 17:12:15;;;;;;;;;;;;;;;;;;4970646;28;19922;-95
2023/03/18 17:14:42;;;;;;;;;;;;;;;;;;4994474;28;20016;-94
2023/03/18 17:17:08;;;;;;;;;;;;;;;;;;4973514;28;19922;-95
2023/03/18 17:19:34;;;;;;;;;;;;;;;;;;4990529;28;20005;-95
2023/03/18 17:22:00;;;;;;;;;;;;;;;;;;4978656;28;19929;-94
2023/03/18 17:24:26;;;;;;;;;;;;;;;;;;4973986;28;19922;-95
2023/03/18 17:26:52;;;;;;;;;;;;;;;;;;4972159;28;20384;-94
2023/03/18 17:29:17;;;;;;;;;;;;;;;;;;4970247;28;19937;-95
2023/03/18 17:31:43;;;;;;;;;;;;;;;;;;4972754;28;19929;-95